Time;durP1;ratioP1;P1;durP2;ratioP2;P2;SDS_P1;SDS_P2;PMS_P1;PMS_P2;Temp;Humidity;BMP_temperature;BMP_pressure;BME280_temperature;BME280_humidity;BME280_pressure;Samples;Min_cycle;Max_cycle;Signal;HPM_P1;HPM_P2
2024/02/02 00:00:51;;;;;;;8.05;5.88;;;7.60;99.90;;;6.99;100.00;103236.03;4168484;28;20037;-72
2024/02/02 00:02:52;;;;;;;7.82;6.03;;;7.70;99.90;;;6.96;100.00;103236.19;4168322;28;20032;-72
2024/02/02 00:04:53;;;;;;;8.95;6.15;;;7.60;99.90;;;6.95;100.00;103231.84;4168232;28;20471;-72
2024/02/02 00:06:54;;;;;;;8.30;6.15;;;7.60;99.90;;;6.97;100.00;103230.00;4168159;28;20493;-72
2024/02/02 00:08:54;;;;;;;8.18;5.78;;;7.70;99.90;;;6.98;100.00;103242.19;4168041;28;20564;-72
2024/02/02 00:10:56;;;;;;;8.18;5.88;;;7.60;99.90;;;6.98;100.00;103247.44;4168141;28;20069;-72
2024/02/02 00:12:56;;;;;;;9.85;6.82;;;7.70;99.90;;;6.98;100.00;103247.44;4169424;28;20021;-72
2024/02/02 00:14:57;;;;;;;8.65;6.30;;;7.60;99.90;;;6.97;100.00;103241.34;4168048;28;20017;-73
2024/02/02 00:16:58;;;;;;;8.32;6.28;;;7.70;99.90;;;7.01;100.00;103242.06;4168153;28;20029;-72
2024/02/02 00:18:59;;;;;;;9.15;6.45;;;7.60;99.90;;;6.98;100.00;103237.81;4169197;28;20389;-73
2024/02/02 00:21:00;;;;;;;10.70;6.72;;;7.70;99.90;;;6.98;100.00;103237.81;4151617;28;20034;-72
2024/02/02 00:23:01;;;;;;;9.88;5.85;;;7.70;99.90;;;7.00;100.00;103251.69;4169076;28;20021;-72
2024/02/02 00:25:02;;;;;;;12.20;5.50;;;7.70;99.90;;;6.94;100.00;103244.13;4167643;28;20432;-72
2024/02/02 00:27:04;;;;;;;11.07;6.32;;;7.70;99.90;;;6.93;100.00;103238.94;4167886;28;20393;-72
2024/02/02 00:29:05;;;;;;;11.50;6.60;;;7.60;99.90;;;6.91;100.00;103243.41;4167984;28;20039;-72
2024/02/02 00:31:06;;;;;;;9.30;6.65;;;7.60;99.90;;;6.89;100.00;103246.09;4169006;28;20037;-72
2024/02/02 00:33:07;;;;;;;14.55;6.93;;;7.60;99.90;;;6.87;100.00;103242.69;4167754;28;20029;-72
2024/02/02 00:35:08;;;;;;;10.88;6.30;;;7.50;99.90;;;6.81;100.00;103250.84;4169125;28;20482;-72
2024/02/02 00:37:08;;;;;;;11.65;6.90;;;7.50;99.90;;;6.82;100.00;103246.44;4167779;28;20037;-72
2024/02/02 00:39:09;;;;;;;11.85;7.55;;;7.50;99.90;;;6.77;100.00;103245.81;4168917;28;20393;-72
2024/02/02 00:41:10;;;;;;;10.70;6.55;;;7.50;99.90;;;6.78;100.00;103247.53;4168856;28;20040;-72
2024/02/02 00:43:11;;;;;;;10.40;6.38;;;7.50;99.90;;;6.78;100.00;103245.72;4167835;28;20033;-72
2024/02/02 00:45:12;;;;;;;9.57;6.22;;;7.50;99.90;;;6.79;100.00;103243.97;4168857;28;20032;-72
2024/02/02 00:47:12;;;;;;;8.50;5.72;;;7.40;99.90;;;6.70;100.00;103237.38;4167216;28;20505;-72
2024/02/02 00:49:13;;;;;;;9.05;5.97;;;7.40;99.90;;;6.66;100.00;103243.66;4168972;28;20084;-72
2024/02/02 00:51:14;;;;;;;8.93;6.55;;;7.30;99.90;;;6.58;100.00;103241.41;4168865;28;20033;-72
2024/02/02 00:53:15;;;;;;;13.00;6.80;;;7.30;99.90;;;6.51;100.00;103253.06;4168830;28;20025;-72
2024/02/02 00:55:16;;;;;;;12.05;6.55;;;7.20;99.90;;;6.47;100.00;103253.31;4167269;28;20025;-72
2024/02/02 00:57:17;;;;;;;10.07;6.78;;;7.20;99.90;;;6.47;100.00;103259.41;4168832;28;20049;-72
2024/02/02 00:59:17;;;;;;;8.93;6.20;;;7.10;99.90;;;6.45;100.00;103255.97;4168831;28;20047;-72
2024/02/02 01:01:18;;;;;;;9.52;6.20;;;7.20;99.90;;;6.47;100.00;103254.16;4168760;28;20025;-72
2024/02/02 01:03:19;;;;;;;11.82;6.40;;;7.20;99.90;;;6.49;100.00;103256.69;4168641;28;20022;-72
2024/02/02 01:05:20;;;;;;;11.80;6.88;;;7.20;99.90;;;6.52;100.00;103261.81;4168567;28;20033;-72
2024/02/02 01:07:21;;;;;;;9.73;6.45;;;7.20;99.90;;;6.56;100.00;103250.28;4168578;28;20101;-72
2024/02/02 01:09:21;;;;;;;8.57;5.30;;;7.30;99.90;;;6.63;100.00;103254.31;4168408;28;20477;-72
2024/02/02 01:11:24;;;;;;;9.25;5.30;;;7.30;99.90;;;6.64;100.00;103254.25;4168341;28;20028;-72
2024/02/02 01:13:25;;;;;;;8.43;5.80;;;7.30;99.90;;;6.63;100.00;103252.53;4168339;28;20095;-72
2024/02/02 01:15:26;;;;;;;9.93;6.57;;;7.30;99.90;;;6.59;100.00;103245.75;4168692;28;20393;-72
2024/02/02 01:17:26;;;;;;;9.00;6.10;;;7.30;99.90;;;6.64;100.00;103256.88;4167380;28;20030;-72
2024/02/02 01:19:27;;;;;;;10.63;6.50;;;7.30;99.90;;;6.62;100.00;103245.59;4168508;28;20481;-72
2024/02/02 01:21:28;;;;;;;7.88;5.50;;;7.30;99.90;;;6.66;100.00;103248.91;4167501;28;20475;-72
2024/02/02 01:23:29;;;;;;;7.53;5.22;;;7.40;99.90;;;6.62;100.00;103255.25;4168751;28;20485;-72
2024/02/02 01:25:30;;;;;;;6.43;4.65;;;7.30;99.90;;;6.59;100.00;103253.59;4167237;28;20504;-72
2024/02/02 01:27:31;;;;;;;10.52;5.78;;;7.30;99.90;;;6.55;100.00;103254.66;4167205;28;20513;-72
2024/02/02 01:29:33;;;;;;;11.25;5.50;;;7.30;99.90;;;6.49;100.00;103259.31;4168441;28;20025;-72
2024/02/02 01:31:34;;;;;;;5.68;4.32;;;7.30;99.90;;;6.55;100.00;103266.91;4171327;28;20041;-72
2024/02/02 01:33:35;;;;;;;7.93;5.68;;;7.30;99.90;;;6.55;100.00;103262.53;4172012;28;20030;-72
2024/02/02 01:35:36;;;;;;;8.88;5.63;;;7.30;99.90;;;6.61;100.00;103259.63;4170013;28;20026;-72
2024/02/02 01:37:36;;;;;;;10.00;5.63;;;7.30;99.90;;;6.67;100.00;103255.88;4171667;28;20040;-72
2024/02/02 01:39:37;;;;;;;9.93;5.22;;;7.30;99.90;;;6.72;100.00;103258.31;4170397;28;20036;-72
2024/02/02 01:41:38;;;;;;;9.85;6.32;;;7.40;99.90;;;6.77;100.00;103256.31;4170365;28;20047;-72
2024/02/02 01:43:40;;;;;;;8.52;5.75;;;7.50;99.90;;;6.77;100.00;103244.06;4171724;28;20032;-72
2024/02/02 01:45:41;;;;;;;9.75;6.03;;;7.50;99.90;;;6.85;100.00;103252.41;4171446;28;20041;-72
2024/02/02 01:47:41;;;;;;;9.52;5.65;;;7.50;99.90;;;6.88;100.00;103252.28;4171547;28;20091;-72
2024/02/02 01:49:42;;;;;;;7.63;5.85;;;7.60;99.90;;;6.90;100.00;103244.34;4171624;28;20040;-72
2024/02/02 01:51:43;;;;;;;9.57;5.40;;;7.60;99.90;;;6.94;100.00;103248.50;4170368;28;20503;-72
2024/02/02 01:53:44;;;;;;;7.88;5.30;;;7.60;99.90;;;6.97;100.00;103246.59;4170262;28;20520;-72
2024/02/02 01:55:45;;;;;;;6.53;4.93;;;7.70;99.90;;;7.02;100.00;103249.00;4170254;28;20022;-72
2024/02/02 01:57:46;;;;;;;9.18;5.75;;;7.70;99.90;;;7.05;100.00;103240.97;4171425;28;20017;-72
2024/02/02 01:59:48;;;;;;;8.48;5.60;;;7.70;99.90;;;7.07;100.00;103249.66;4171446;28;20022;-72
2024/02/02 02:01:49;;;;;;;7.65;4.68;;;7.80;99.90;;;7.00;100.00;103240.34;4170104;28;20021;-72
2024/02/02 02:03:50;;;;;;;8.73;4.32;;;7.70;99.90;;;6.93;100.00;103234.53;4171364;28;20021;-72
2024/02/02 02:05:50;;;;;;;8.02;5.53;;;7.70;99.90;;;6.82;100.00;103234.19;4171295;28;20040;-72
2024/02/02 02:07:51;;;;;;;7.03;5.13;;;7.50;99.90;;;6.61;100.00;103222.91;4171262;28;20110;-72
2024/02/02 02:09:52;;;;;;;7.40;5.53;;;7.40;99.90;;;6.49;100.00;103220.84;4169774;28;20091;-72
2024/02/02 02:11:53;;;;;;;7.10;5.07;;;7.30;99.90;;;6.37;100.00;103221.38;4171349;28;20025;-72
2024/02/02 02:13:54;;;;;;;7.95;5.03;;;7.20;99.90;;;6.29;100.00;103228.75;4170084;28;20068;-72
2024/02/02 02:15:56;;;;;;;9.40;5.38;;;7.00;99.90;;;6.19;100.00;103223.97;4153503;28;20033;-72
2024/02/02 02:17:56;;;;;;;8.18;5.28;;;7.00;99.90;;;6.15;100.00;103222.41;4192957;28;20047;-72
2024/02/02 02:19:59;;;;;;;6.80;4.68;;;6.90;99.90;;;6.05;100.00;103219.34;4171280;28;20037;-72
2024/02/02 02:22:00;;;;;;;9.25;4.78;;;6.80;99.90;;;5.99;100.00;103222.22;4169906;28;20025;-72
2024/02/02 02:24:00;;;;;;;8.15;4.47;;;6.70;99.90;;;5.94;100.00;103229.44;4169918;28;20040;-72
2024/02/02 02:26:02;;;;;;;8.73;4.60;;;6.60;99.90;;;5.88;100.00;103235.78;4170689;28;20029;-72
2024/02/02 02:28:03;;;;;;;9.38;5.50;;;6.60;99.90;;;5.77;100.00;103227.47;4171040;28;20397;-72
2024/02/02 02:30:05;;;;;;;8.10;5.10;;;6.50;99.90;;;5.74;100.00;103235.47;4171119;28;20108;-72
2024/02/02 02:32:06;;;;;;;8.57;5.18;;;6.50;99.90;;;5.67;100.00;103233.19;4169904;28;20424;-72
2024/02/02 02:34:07;;;;;;;7.90;5.18;;;6.40;99.90;;;5.63;100.00;103234.22;4169785;28;20513;-72
2024/02/02 02:36:09;;;;;;;8.43;5.53;;;6.40;99.90;;;5.55;100.00;103232.75;4169724;28;20040;-72
2024/02/02 02:38:10;;;;;;;6.97;5.45;;;6.30;99.90;;;5.50;100.00;103239.94;4169649;28;20021;-72
2024/02/02 02:40:11;;;;;;;8.02;5.38;;;6.30;99.90;;;5.47;100.00;103245.31;4170662;28;20030;-72
2024/02/02 02:42:12;;;;;;;11.85;5.40;;;6.20;99.90;;;5.43;100.00;103242.91;4170655;28;20037;-72
2024/02/02 02:44:13;;;;;;;9.10;5.80;;;6.10;99.90;;;5.38;100.00;103243.06;4170855;28;20025;-72
2024/02/02 02:46:14;;;;;;;8.38;5.10;;;6.10;99.90;;;5.35;100.00;103244.94;4170547;28;20037;-72
2024/02/02 02:48:14;;;;;;;8.50;5.63;;;6.10;99.90;;;5.34;100.00;103243.25;4170474;28;20045;-72
2024/02/02 02:50:15;;;;;;;8.32;5.88;;;6.00;99.90;;;5.28;100.00;103239.13;4170584;28;20029;-72
2024/02/02 02:52:16;;;;;;;9.48;5.20;;;6.00;99.90;;;5.26;100.00;103230.47;4170714;28;20079;-72
2024/02/02 02:54:17;;;;;;;9.73;5.93;;;6.00;99.90;;;5.22;100.00;103234.13;4170853;28;20022;-72
2024/02/02 02:56:18;;;;;;;10.57;5.70;;;5.90;99.90;;;5.17;100.00;103227.38;4170450;28;20059;-72
2024/02/02 02:58:19;;;;;;;12.57;5.88;;;5.90;99.90;;;5.12;100.00;103222.31;4169269;28;20022;-72
2024/02/02 03:00:20;;;;;;;9.40;6.25;;;5.80;99.90;;;5.06;100.00;103213.84;4170417;28;20030;-72
2024/02/02 03:02:21;;;;;;;11.63;6.00;;;5.80;99.90;;;5.06;100.00;103221.69;4170515;28;20025;-72
2024/02/02 03:04:22;;;;;;;8.60;5.65;;;5.80;99.90;;;5.05;100.00;103226.06;4170361;28;20040;-72
2024/02/02 03:06:22;;;;;;;10.68;6.20;;;5.80;99.90;;;5.02;100.00;103215.72;4169161;28;20108;-72
2024/02/02 03:08:23;;;;;;;9.98;6.00;;;5.80;99.90;;;5.03;100.00;103227.91;4168817;28;20037;-72
2024/02/02 03:10:25;;;;;;;9.02;5.80;;;5.70;99.90;;;5.03;100.00;103227.91;4169536;28;20071;-72
2024/02/02 03:12:26;;;;;;;8.38;5.43;;;5.70;99.90;;;5.01;100.00;103227.13;4170292;28;20065;-72
2024/02/02 03:14:27;;;;;;;11.40;4.93;;;5.70;99.90;;;5.03;100.00;103227.91;4169112;28;20028;-72
2024/02/02 03:16:28;;;;;;;7.13;5.00;;;5.70;99.90;;;5.01;100.00;103222.75;4170296;28;20037;-72
2024/02/02 03:18:29;;;;;;;8.68;5.10;;;5.70;99.90;;;5.02;100.00;103232.28;4169025;28;20021;-72
2024/02/02 03:20:30;;;;;;;7.78;4.70;;;5.70;99.90;;;5.02;100.00;103231.44;4170264;28;20527;-72
2024/02/02 03:22:31;;;;;;;9.95;5.00;;;5.70;99.90;;;5.08;100.00;103233.81;4152563;28;20022;-72
2024/02/02 03:24:31;;;;;;;8.23;4.60;;;5.80;99.90;;;5.09;100.00;103232.91;4170045;28;20037;-72
2024/02/02 03:26:32;;;;;;;13.68;6.13;;;5.80;99.90;;;5.11;100.00;103235.47;4168750;28;20026;-72
2024/02/02 03:28:33;;;;;;;8.68;5.13;;;5.80;99.90;;;5.13;100.00;103236.25;4170078;28;20053;-72
2024/02/02 03:30:34;;;;;;;7.97;4.97;;;5.90;99.90;;;5.13;100.00;103234.50;4170128;28;20049;-72
2024/02/02 03:32:35;;;;;;;7.95;5.35;;;5.90;99.90;;;5.15;100.00;103231.81;4169881;28;20085;-72
2024/02/02 03:34:36;;;;;;;7.03;4.90;;;5.90;99.90;;;5.18;100.00;103237.78;4168914;28;20021;-72
2024/02/02 03:36:37;;;;;;;11.55;6.25;;;5.90;99.90;;;5.22;100.00;103239.38;4168701;28;20038;-72
2024/02/02 03:38:38;;;;;;;9.73;5.50;;;5.90;99.90;;;5.26;100.00;103235.69;4169867;28;20025;-72
2024/02/02 03:40:39;;;;;;;9.65;5.18;;;6.00;99.90;;;5.31;100.00;103228.53;4169673;28;20029;-72
2024/02/02 03:42:39;;;;;;;10.65;5.15;;;6.00;99.90;;;5.40;100.00;103235.16;4168781;28;20516;-72
2024/02/02 03:44:40;;;;;;;14.63;6.35;;;6.10;99.90;;;5.48;100.00;103240.94;4169357;28;20088;-72
2024/02/02 03:46:41;;;;;;;8.38;4.22;;;6.20;99.90;;;5.52;100.00;103232.91;4169399;28;20083;-73
2024/02/02 03:48:42;;;;;;;6.88;4.22;;;6.20;99.90;;;5.59;100.00;103236.09;4169744;28;20547;-72
2024/02/02 03:50:43;;;;;;;9.40;4.82;;;6.30;99.90;;;5.64;100.00;103231.53;4168620;28;20025;-72
2024/02/02 03:52:44;;;;;;;10.00;6.05;;;6.30;99.90;;;5.67;100.00;103233.19;4169497;28;20041;-72
2024/02/02 03:54:44;;;;;;;10.98;5.35;;;6.40;99.90;;;5.68;100.00;103227.88;4168167;28;20077;-72
2024/02/02 03:56:45;;;;;;;8.00;4.82;;;6.40;99.90;;;5.72;100.00;103233.84;4168333;28;20029;-72
2024/02/02 03:58:46;;;;;;;8.27;4.90;;;6.50;99.90;;;5.73;100.00;103225.06;4166138;28;20037;-72
2024/02/02 04:00:47;;;;;;;7.15;5.03;;;6.50;99.90;;;5.71;100.00;103214.66;4168459;28;20406;-72
2024/02/02 04:02:48;;;;;;;8.02;4.90;;;6.50;99.90;;;5.74;100.00;103221.50;4169482;28;20401;-72
2024/02/02 04:04:49;;;;;;;8.10;4.75;;;6.50;99.90;;;5.70;100.00;103215.59;4168086;28;20037;-72
2024/02/02 04:06:49;;;;;;;11.40;5.85;;;6.50;99.90;;;5.75;100.00;103218.84;4168451;28;20029;-72
2024/02/02 04:08:50;;;;;;;9.05;5.40;;;6.50;99.90;;;5.76;100.00;103214.47;4168423;28;20058;-72
2024/02/02 04:10:51;;;;;;;8.48;5.28;;;6.50;99.90;;;5.77;100.00;103222.25;4169332;28;20025;-72
2024/02/02 04:12:52;;;;;;;7.43;4.43;;;6.50;99.90;;;5.81;100.00;103217.72;4168190;28;20047;-72
2024/02/02 04:14:53;;;;;;;12.68;5.63;;;6.50;99.90;;;5.84;100.00;103207.13;4168075;28;20021;-72
2024/02/02 04:16:54;;;;;;;7.35;5.43;;;6.60;99.90;;;5.89;100.00;103228.75;4168339;28;20064;-72
2024/02/02 04:18:54;;;;;;;7.90;5.10;;;6.60;99.90;;;5.93;100.00;103222.50;4169193;28;20488;-72
2024/02/02 04:20:55;;;;;;;9.30;5.15;;;6.70;99.90;;;5.96;100.00;103224.97;4169249;28;20029;-72
2024/02/02 04:22:56;;;;;;;6.43;4.63;;;6.70;99.90;;;5.99;100.00;103214.38;4169101;28;20034;-72
2024/02/02 04:24:57;;;;;;;6.63;4.18;;;6.70;99.90;;;6.01;100.00;103216.00;4167673;28;20029;-72
2024/02/02 04:26:58;;;;;;;7.22;4.15;;;6.80;99.90;;;6.05;100.00;103224.56;4167769;28;20025;-72
2024/02/02 04:28:58;;;;;;;6.90;4.40;;;6.80;99.90;;;6.07;100.00;103217.50;4169034;28;20034;-72
2024/02/02 04:30:59;;;;;;;10.05;5.05;;;6.80;99.90;;;6.09;100.00;103210.44;4167904;28;20024;-72
2024/02/02 04:33:00;;;;;;;8.13;4.95;;;6.80;99.90;;;6.11;100.00;103221.69;4169143;28;20037;-72
2024/02/02 04:35:01;;;;;;;6.15;4.57;;;6.90;99.90;;;6.14;100.00;103221.56;4169080;28;20025;-72
2024/02/02 04:37:03;;;;;;;8.23;5.30;;;6.90;99.90;;;6.13;100.00;103225.94;4169067;28;20156;-72
2024/02/02 04:39:04;;;;;;;7.68;4.45;;;6.90;99.90;;;6.15;100.00;103228.53;4167676;28;20025;-72
2024/02/02 04:41:05;;;;;;;5.60;4.40;;;6.90;99.90;;;6.16;100.00;103224.94;4167486;28;20033;-72
2024/02/02 04:43:06;;;;;;;8.57;5.07;;;6.90;99.90;;;6.11;100.00;103227.78;4168958;28;20073;-72
2024/02/02 04:45:07;;;;;;;9.35;5.47;;;6.90;99.90;;;6.19;100.00;103235.31;4168797;28;20455;-72
2024/02/02 04:47:08;;;;;;;8.98;5.18;;;6.90;99.90;;;6.24;100.00;103230.72;4168621;28;20064;-72
2024/02/02 04:49:09;;;;;;;7.35;4.45;;;7.00;99.90;;;6.26;100.00;103226.28;4169000;28;20021;-72
2024/02/02 04:51:10;;;;;;;8.88;5.20;;;7.00;99.90;;;6.27;100.00;103233.22;4168928;28;20018;-72
2024/02/02 04:53:13;;;;;;;7.72;4.70;;;7.00;99.90;;;6.26;100.00;103234.13;4167614;28;20021;-72
2024/02/02 04:55:14;;;;;;;8.05;4.72;;;7.00;99.90;;;6.27;100.00;103227.13;4168654;28;20033;-72
2024/02/02 04:57:15;;;;;;;7.55;5.40;;;7.00;99.90;;;6.26;100.00;103230.66;4168735;28;20025;-72
2024/02/02 04:59:16;;;;;;;8.48;4.70;;;7.00;99.90;;;6.26;100.00;103233.28;4168755;28;20025;-72
2024/02/02 05:01:19;;;;;;;9.30;4.55;;;7.00;99.90;;;6.23;100.00;103239.50;4168538;28;20405;-72
2024/02/02 05:03:20;;;;;;;8.27;4.78;;;7.00;99.90;;;6.22;100.00;103232.56;4167473;28;20109;-72
2024/02/02 05:05:21;;;;;;;7.65;3.70;;;7.00;99.90;;;6.23;100.00;103234.25;4166380;28;20029;-72
2024/02/02 05:07:21;;;;;;;9.00;4.28;;;7.00;99.90;;;6.25;100.00;103231.56;4168581;28;20018;-72
2024/02/02 05:09:22;;;;;;;8.05;3.90;;;7.00;99.90;;;6.25;100.00;103223.69;4168824;28;20017;-72
2024/02/02 05:11:23;;;;;;;7.40;4.18;;;7.00;99.90;;;6.26;100.00;103231.50;4167262;28;20031;-72
2024/02/02 05:13:24;;;;;;;8.15;4.50;;;7.00;99.90;;;6.26;100.00;103225.41;4167258;28;20038;-72
2024/02/02 05:15:25;;;;;;;8.15;3.60;;;7.00;99.90;;;6.18;100.00;103223.13;4167034;28;20056;-72
2024/02/02 05:17:27;;;;;;;6.38;3.90;;;7.00;99.90;;;6.15;100.00;103233.75;4168431;28;20029;-72
2024/02/02 05:19:28;;;;;;;8.93;3.80;;;6.90;99.90;;;6.13;100.00;103240.81;4150933;28;20046;-72
2024/02/02 05:21:29;;;;;;;6.18;3.92;;;6.90;99.90;;;6.12;100.00;103233.88;4168467;28;20037;-72
2024/02/02 05:23:29;;;;;;;5.97;3.78;;;6.90;99.90;;;6.11;100.00;103240.03;4168622;28;20402;-72
2024/02/02 05:25:30;;;;;;;6.43;3.72;;;6.90;99.90;;;6.06;100.00;103234.16;4168497;28;20048;-72
2024/02/02 05:27:31;;;;;;;6.82;4.25;;;6.80;99.90;;;5.97;100.00;103229.31;4168508;28;20022;-72
2024/02/02 05:29:32;;;;;;;11.82;4.70;;;6.80;99.90;;;5.91;100.00;103229.56;4168598;28;20099;-72
2024/02/02 05:31:33;;;;;;;7.22;4.50;;;6.70;99.90;;;5.77;100.00;103226.63;4168666;28;20037;-72
2024/02/02 05:33:34;;;;;;;7.85;4.70;;;6.60;99.90;;;5.66;100.00;103223.63;4150884;28;20030;-72
2024/02/02 05:35:35;;;;;;;9.88;6.68;;;6.40;99.90;;;5.56;100.00;103229.22;4183825;28;20021;-72
2024/02/02 05:37:35;;;;;;;13.55;7.57;;;6.30;99.90;;;5.48;100.00;103230.47;4168490;28;20060;-72
2024/02/02 05:39:36;;;;;;;15.00;8.27;;;6.30;99.90;;;5.39;100.00;103231.69;4168316;28;20029;-72
2024/02/02 05:41:37;;;;;;;12.70;7.70;;;6.20;99.90;;;5.32;100.00;103227.59;4168724;28;20056;-72
2024/02/02 05:43:38;;;;;;;12.40;7.18;;;6.10;99.90;;;5.23;100.00;103222.75;4167336;28;20140;-72
2024/02/02 05:45:39;;;;;;;11.18;8.07;;;6.00;99.90;;;5.14;100.00;103217.03;4167902;28;20026;-72
2024/02/02 05:47:40;;;;;;;11.48;7.18;;;6.00;99.90;;;5.07;100.00;103224.28;4166950;28;20096;-72
2024/02/02 05:49:40;;;;;;;14.40;7.13;;;5.90;99.90;;;4.98;100.00;103225.50;4167838;28;20026;-72
2024/02/02 05:51:41;;;;;;;12.18;7.28;;;5.80;99.90;;;4.93;100.00;103223.94;4168402;28;20037;-72
2024/02/02 05:53:42;;;;;;;9.88;6.65;;;5.70;99.90;;;4.86;100.00;103225.09;4167130;28;20025;-72
2024/02/02 05:55:43;;;;;;;13.55;7.80;;;5.70;99.90;;;4.86;100.00;103233.81;4167217;28;20493;-72
2024/02/02 05:57:44;;;;;;;11.52;7.47;;;5.60;99.90;;;4.79;100.00;103229.72;4168306;28;20048;-72
2024/02/02 05:59:45;;;;;;;15.43;7.20;;;5.60;99.90;;;4.74;100.00;103225.56;4168228;28;20476;-72
2024/02/02 06:01:46;;;;;;;9.45;6.38;;;5.50;99.90;;;4.72;100.00;103224.78;4167014;28;20029;-72
2024/02/02 06:03:46;;;;;;;15.45;6.68;;;5.50;99.90;;;4.69;100.00;103230.13;4167279;28;20022;-72
2024/02/02 06:05:47;;;;;;;12.27;6.97;;;5.50;99.90;;;4.63;100.00;103227.75;4168221;28;20017;-72
2024/02/02 06:07:48;;;;;;;11.48;5.57;;;5.40;99.90;;;4.61;100.00;103232.16;4167015;28;20502;-72
2024/02/02 06:09:49;;;;;;;16.52;7.00;;;5.40;99.90;;;4.57;100.00;103239.25;4167905;28;20038;-72
2024/02/02 06:11:50;;;;;;;13.02;7.13;;;5.40;99.90;;;4.56;100.00;103241.94;4167127;28;20021;-72
2024/02/02 06:13:54;;;;;;;10.90;7.05;;;5.40;99.90;;;4.54;100.00;103244.59;4167007;28;20060;-72
2024/02/02 06:15:55;;;;;;;10.23;6.68;;;5.30;99.90;;;4.47;100.00;103232.66;4168164;28;20057;-72
2024/02/02 06:17:57;;;;;;;10.48;6.65;;;5.30;99.90;;;4.48;100.00;103239.59;4171022;28;20485;-72
2024/02/02 06:19:58;;;;;;;12.55;6.53;;;5.30;99.90;;;4.52;100.00;103240.31;4169984;28;20022;-72
2024/02/02 06:21:58;;;;;;;12.80;7.38;;;5.30;99.90;;;4.59;100.00;103241.81;4171150;28;20033;-72
2024/02/02 06:23:59;;;;;;;11.25;7.38;;;5.40;99.90;;;4.65;100.00;103238.97;4171091;28;20048;-72
2024/02/02 06:26:00;;;;;;;11.05;7.53;;;5.40;99.90;;;4.73;100.00;103239.53;4170674;28;20036;-72
2024/02/02 06:28:02;;;;;;;9.35;6.03;;;5.50;99.90;;;4.82;100.00;103245.28;4171037;28;20037;-72
2024/02/02 06:30:03;;;;;;;11.32;6.80;;;5.60;99.90;;;4.91;100.00;103244.06;4169852;28;20021;-72
2024/02/02 06:32:05;;;;;;;12.57;7.30;;;5.70;99.90;;;4.99;100.00;103244.63;4171036;28;20033;-72
2024/02/02 06:34:06;;;;;;;17.27;8.35;;;5.70;99.90;;;5.06;100.00;103248.72;4170883;28;20072;-72
2024/02/02 06:36:07;;;;;;;16.20;7.53;;;5.80;99.90;;;5.16;100.00;103241.38;4170998;28;20026;-72
2024/02/02 06:38:08;;;;;;;12.45;7.40;;;5.90;99.90;;;5.23;100.00;103241.06;4170868;28;20607;-72
2024/02/02 06:40:10;;;;;;;9.75;6.85;;;6.00;99.90;;;5.26;100.00;103235.69;4170685;28;20038;-72
2024/02/02 06:42:10;;;;;;;13.60;7.82;;;6.00;99.90;;;5.29;100.00;103247.81;4169419;28;20021;-72
2024/02/02 06:44:11;;;;;;;13.57;8.32;;;6.10;99.90;;;5.34;100.00;103249.34;4170919;28;20026;-72
2024/02/02 06:46:12;;;;;;;15.30;8.80;;;6.10;99.90;;;5.46;100.00;103248.88;4170605;28;20080;-72
2024/02/02 06:48:14;;;;;;;14.73;7.22;;;6.20;99.90;;;5.33;100.00;103241.53;4169360;28;20093;-72
2024/02/02 06:50:15;;;;;;;10.82;7.18;;;6.20;99.90;;;5.39;100.00;103236.94;4170816;28;20060;-72
2024/02/02 06:52:17;;;;;;;10.73;7.05;;;6.20;99.90;;;5.41;100.00;103236.84;4169607;28;20029;-72
2024/02/02 06:54:18;;;;;;;12.27;7.43;;;6.20;99.90;;;5.41;100.00;103232.47;4170693;28;20519;-72
2024/02/02 06:56:45;;;;;;;11.20;7.10;;;6.20;99.90;;;5.44;100.00;103253.28;4169295;28;20485;-72
2024/02/02 06:58:46;;;;;;;12.25;6.85;;;6.20;99.90;;;5.47;100.00;103250.53;4169188;28;20060;-72
2024/02/02 07:00:46;;;;;;;23.05;13.48;;;6.20;99.90;;;5.50;100.00;103245.19;4169245;28;20397;-72
2024/02/02 07:02:47;;;;;;;43.13;25.60;;;6.30;99.90;;;5.54;100.00;103254.63;4169391;28;20484;-72
2024/02/02 07:04:49;;;;;;;31.35;17.17;;;6.30;99.90;;;5.58;100.00;103252.75;4169201;28;20029;-72
2024/02/02 07:06:49;;;;;;;22.30;12.75;;;6.40;99.90;;;5.63;100.00;103257.78;4170143;28;20026;-72
2024/02/02 07:08:51;;;;;;;13.32;8.75;;;6.40;99.90;;;5.66;100.00;103260.28;4168887;28;20045;-72
2024/02/02 07:11:11;;;;;;;12.02;7.95;;;6.40;99.90;;;5.66;100.00;103255.88;4170227;28;20100;-72
2024/02/02 07:13:11;;;;;;;12.40;7.88;;;6.40;99.90;;;5.67;100.00;103264.59;4167971;28;20033;-72
2024/02/02 07:15:19;;;;;;;12.48;7.50;;;6.40;99.90;;;5.68;100.00;103254.06;4152592;28;20018;-72
2024/02/02 07:17:38;;;;;;;10.43;6.95;;;6.40;99.90;;;5.70;100.00;103262.72;4170333;28;20034;-72
2024/02/02 07:19:42;;;;;;;11.05;7.68;;;6.50;99.90;;;5.71;100.00;103259.16;4167589;28;20026;-72
2024/02/02 07:21:42;;;;;;;11.70;8.27;;;6.50;99.90;;;5.75;100.00;103260.75;4169158;28;20033;-72
2024/02/02 07:23:44;;;;;;;11.95;6.88;;;6.50;99.90;;;5.78;100.00;103262.38;4169133;28;20071;-72
2024/02/02 07:25:47;;;;;;;14.63;8.13;;;6.50;99.90;;;5.76;100.00;103259.00;4168789;28;20048;-72
2024/02/02 07:27:56;;;;;;;10.63;7.72;;;6.60;99.90;;;5.75;100.00;103260.75;4168182;28;20081;-72
2024/02/02 07:29:56;;;;;;;12.88;7.72;;;6.60;99.90;;;5.76;100.00;103262.47;4169035;28;20017;-72
2024/02/02 07:31:57;;;;;;;9.45;6.22;;;6.60;99.90;;;5.78;100.00;103265.00;4170141;28;20362;-72
2024/02/02 07:34:39;;;;;;;9.77;6.45;;;6.60;99.90;;;5.75;100.00;103271.22;4170067;28;20409;-72
2024/02/02 07:36:40;;;;;;;9.40;6.65;;;6.50;99.90;;;5.70;100.00;103262.72;4157511;28;20535;-72
2024/02/02 07:38:49;;;;;;;8.95;6.72;;;6.50;99.90;;;5.67;100.00;103261.97;4168703;28;20037;-72
2024/02/02 07:41:09;;;;;;;9.73;7.00;;;6.50;99.90;;;5.76;100.00;103266.84;4152014;28;20026;-72
2024/02/02 07:43:10;;;;;;;12.73;7.50;;;6.50;99.90;;;5.77;100.00;103272.00;4168673;28;20030;-72
2024/02/02 07:45:11;;;;;;;11.27;7.57;;;6.50;99.90;;;5.79;100.00;103267.56;4169711;28;20032;-72
2024/02/02 07:47:12;;;;;;;11.55;7.97;;;6.60;99.90;;;5.84;100.00;103281.31;4169293;28;20057;-72
2024/02/02 07:49:13;;;;;;;12.00;7.78;;;6.60;99.90;;;5.89;100.00;103278.53;4169739;28;20032;-72
2024/02/02 07:51:16;;;;;;;10.55;7.30;;;6.70;99.90;;;5.92;100.00;103275.78;4168617;28;20033;-72
2024/02/02 07:53:17;;;;;;;12.00;6.77;;;6.70;99.90;;;5.95;100.00;103271.28;4168624;28;20021;-72
2024/02/02 07:55:18;;;;;;;11.02;7.50;;;6.70;99.90;;;6.01;100.00;103281.50;4169396;28;20855;-72
2024/02/02 07:57:18;;;;;;;9.27;6.35;;;6.80;99.90;;;6.06;100.00;103276.91;4169698;28;20018;-71
2024/02/02 07:59:19;;;;;;;9.90;6.68;;;6.80;99.90;;;6.11;100.00;103263.63;4169630;28;20029;-73
2024/02/02 08:01:20;;;;;;;13.77;7.28;;;6.80;99.90;;;6.18;100.00;103274.69;4169602;28;20029;-72
2024/02/02 08:03:21;;;;;;;11.63;7.45;;;6.90;99.90;;;6.23;100.00;103275.34;4169353;28;20029;-72
2024/02/02 08:05:22;;;;;;;11.95;6.88;;;7.00;99.90;;;6.27;100.00;103272.53;4168383;28;20440;-72
2024/02/02 08:07:23;;;;;;;14.20;7.32;;;7.00;99.90;;;6.34;100.00;103276.56;4168175;28;20487;-72
2024/02/02 08:09:23;;;;;;;10.57;7.25;;;7.10;99.90;;;6.42;100.00;103266.59;4167921;28;20481;-72
2024/02/02 08:11:26;;;;;;;12.63;7.25;;;7.20;99.90;;;6.52;100.00;103269.66;4168613;28;20025;-71
2024/02/02 08:13:26;;;;;;;10.50;7.28;;;7.30;99.90;;;6.60;100.00;103252.66;4166188;28;20032;-71
2024/02/02 08:15:27;;;;;;;11.75;6.97;;;7.40;99.90;;;6.70;100.00;103253.09;4167671;28;20033;-71
2024/02/02 08:17:28;;;;;;;13.35;7.25;;;7.50;99.90;;;6.87;100.00;103270.72;4167677;28;20041;-71
2024/02/02 08:19:29;;;;;;;10.48;7.20;;;7.60;99.90;;;6.95;100.00;103268.59;4168758;28;20047;-71
2024/02/02 08:21:30;;;;;;;10.77;7.03;;;7.60;99.90;;;7.04;100.00;103268.16;4167864;28;20035;-73
2024/02/02 08:23:32;;;;;;;9.05;6.47;;;7.70;99.90;;;7.12;100.00;103272.13;4168562;28;20489;-72
2024/02/02 08:25:34;;;;;;;10.10;7.07;;;7.80;99.90;;;7.20;100.00;103269.97;4167456;28;20120;-72
2024/02/02 08:27:34;;;;;;;9.02;6.35;;;7.90;99.90;;;7.28;100.00;103267.00;4167198;28;20125;-72